sensor_id;sensor_type;location;lat;lon;timestamp;P1;durP1;ratioP1;P2;durP2;ratioP2
57217;SDS011;43078;52.972;6.482;2023-04-03T00:01:03;3.63;;;0.88;;
57217;SDS011;43078;52.972;6.482;2023-04-03T00:03:28;5.43;;;0.95;;
57217;SDS011;43078;52.972;6.482;2023-04-03T00:05:54;6.18;;;0.88;;
57217;SDS011;43078;52.972;6.482;2023-04-03T00:08:20;4.68;;;1.10;;
57217;SDS011;43078;52.972;6.482;2023-04-03T00:10:46;2.65;;;0.73;;
57217;SDS011;43078;52.972;6.482;2023-04-03T00:13:11;6.50;;;1.20;;
57217;SDS011;43078;52.972;6.482;2023-04-03T00:15:38;5.13;;;0.95;;
57217;SDS011;43078;52.972;6.482;2023-04-03T00:18:04;4.55;;;1.00;;
57217;SDS011;43078;52.972;6.482;2023-04-03T00:20:30;3.22;;;1.15;;
57217;SDS011;43078;52.972;6.482;2023-04-03T00:22:56;2.50;;;0.73;;
57217;SDS011;43078;52.972;6.482;2023-04-03T00:25:22;6.80;;;1.00;;
57217;SDS011;43078;52.972;6.482;2023-04-03T00:27:48;3.00;;;0.80;;
57217;SDS011;43078;52.972;6.482;2023-04-03T00:30:15;3.63;;;1.10;;
57217;SDS011;43078;52.972;6.482;2023-04-03T00:32:42;3.67;;;0.98;;
57217;SDS011;43078;52.972;6.482;2023-04-03T00:35:08;3.80;;;0.98;;
57217;SDS011;43078;52.972;6.482;2023-04-03T00:37:34;6.68;;;0.95;;
57217;SDS011;43078;52.972;6.482;2023-04-03T00:40:00;4.32;;;0.95;;
57217;SDS011;43078;52.972;6.482;2023-04-03T00:42:26;4.75;;;1.00;;
57217;SDS011;43078;52.972;6.482;2023-04-03T00:47:18;2.97;;;0.93;;
57217;SDS011;43078;52.972;6.482;2023-04-03T00:49:44;4.03;;;1.00;;
57217;SDS011;43078;52.972;6.482;2023-04-03T00:52:11;4.82;;;1.10;;
57217;SDS011;43078;52.972;6.482;2023-04-03T00:54:40;3.65;;;1.05;;
57217;SDS011;43078;52.972;6.482;2023-04-03T00:57:07;3.47;;;0.90;;
57217;SDS011;43078;52.972;6.482;2023-04-03T00:59:38;4.05;;;0.93;;
57217;SDS011;43078;52.972;6.482;2023-04-03T01:02:09;6.25;;;1.13;;
57217;SDS011;43078;52.972;6.482;2023-04-03T01:07:09;4.30;;;0.90;;
57217;SDS011;43078;52.972;6.482;2023-04-03T01:09:38;5.95;;;1.20;;
57217;SDS011;43078;52.972;6.482;2023-04-03T01:12:21;4.38;;;1.00;;
57217;SDS011;43078;52.972;6.482;2023-04-03T01:14:52;2.67;;;0.75;;
57217;SDS011;43078;52.972;6.482;2023-04-03T01:25:26;3.55;;;0.90;;
57217;SDS011;43078;52.972;6.482;2023-04-03T01:27:52;5.45;;;1.33;;
57217;SDS011;43078;52.972;6.482;2023-04-03T01:30:18;3.78;;;1.17;;
57217;SDS011;43078;52.972;6.482;2023-04-03T01:32:45;5.63;;;1.20;;
57217;SDS011;43078;52.972;6.482;2023-04-03T01:35:11;5.38;;;1.00;;
57217;SDS011;43078;52.972;6.482;2023-04-03T01:37:37;2.53;;;0.90;;
57217;SDS011;43078;52.972;6.482;2023-04-03T01:40:03;3.13;;;1.00;;
57217;SDS011;43078;52.972;6.482;2023-04-03T01:42:29;4.53;;;1.10;;
57217;SDS011;43078;52.972;6.482;2023-04-03T01:44:55;4.55;;;1.08;;
57217;SDS011;43078;52.972;6.482;2023-04-03T01:47:21;2.67;;;1.10;;
57217;SDS011;43078;52.972;6.482;2023-04-03T01:49:46;5.95;;;1.25;;
57217;SDS011;43078;52.972;6.482;2023-04-03T01:52:12;4.43;;;1.13;;
57217;SDS011;43078;52.972;6.482;2023-04-03T01:54:38;4.00;;;1.00;;
57217;SDS011;43078;52.972;6.482;2023-04-03T01:57:03;3.33;;;0.90;;
57217;SDS011;43078;52.972;6.482;2023-04-03T01:59:29;3.45;;;1.08;;
57217;SDS011;43078;52.972;6.482;2023-04-03T02:01:55;3.83;;;0.90;;
57217;SDS011;43078;52.972;6.482;2023-04-03T02:04:20;3.15;;;1.10;;
57217;SDS011;43078;52.972;6.482;2023-04-03T02:06:46;4.22;;;1.05;;
57217;SDS011;43078;52.972;6.482;2023-04-03T02:09:12;5.55;;;1.33;;
57217;SDS011;43078;52.972;6.482;2023-04-03T02:11:37;4.03;;;1.08;;
57217;SDS011;43078;52.972;6.482;2023-04-03T02:14:03;4.63;;;1.25;;
57217;SDS011;43078;52.972;6.482;2023-04-03T02:16:29;4.88;;;1.20;;
57217;SDS011;43078;52.972;6.482;2023-04-03T02:18:55;3.13;;;1.00;;
57217;SDS011;43078;52.972;6.482;2023-04-03T02:21:21;3.58;;;1.20;;
57217;SDS011;43078;52.972;6.482;2023-04-03T02:23:47;3.85;;;1.20;;
57217;SDS011;43078;52.972;6.482;2023-04-03T02:26:13;4.93;;;1.30;;
57217;SDS011;43078;52.972;6.482;2023-04-03T02:28:40;3.78;;;1.25;;
57217;SDS011;43078;52.972;6.482;2023-04-03T02:31:08;2.95;;;0.95;;
57217;SDS011;43078;52.972;6.482;2023-04-03T02:33:35;4.47;;;1.30;;
57217;SDS011;43078;52.972;6.482;2023-04-03T02:36:02;3.50;;;1.10;;
57217;SDS011;43078;52.972;6.482;2023-04-03T02:38:29;5.15;;;1.15;;
57217;SDS011;43078;52.972;6.482;2023-04-03T02:41:02;6.00;;;1.20;;
57217;SDS011;43078;52.972;6.482;2023-04-03T02:43:29;3.53;;;1.20;;
57217;SDS011;43078;52.972;6.482;2023-04-03T02:45:55;4.95;;;1.40;;
57217;SDS011;43078;52.972;6.482;2023-04-03T02:48:21;4.82;;;1.30;;
57217;SDS011;43078;52.972;6.482;2023-04-03T02:50:47;4.07;;;1.08;;
57217;SDS011;43078;52.972;6.482;2023-04-03T02:53:13;4.10;;;1.20;;
57217;SDS011;43078;52.972;6.482;2023-04-03T02:55:40;6.25;;;1.40;;
57217;SDS011;43078;52.972;6.482;2023-04-03T02:58:06;4.15;;;1.30;;
57217;SDS011;43078;52.972;6.482;2023-04-03T03:00:31;5.82;;;1.75;;
57217;SDS011;43078;52.972;6.482;2023-04-03T03:02:57;6.53;;;1.48;;
57217;SDS011;43078;52.972;6.482;2023-04-03T03:05:23;5.13;;;1.33;;
57217;SDS011;43078;52.972;6.482;2023-04-03T03:07:48;6.43;;;1.40;;
57217;SDS011;43078;52.972;6.482;2023-04-03T03:10:14;7.07;;;1.10;;
57217;SDS011;43078;52.972;6.482;2023-04-03T03:12:40;4.50;;;1.25;;
57217;SDS011;43078;52.972;6.482;2023-04-03T03:15:06;4.40;;;1.30;;
57217;SDS011;43078;52.972;6.482;2023-04-03T03:17:32;6.43;;;1.60;;
57217;SDS011;43078;52.972;6.482;2023-04-03T03:19:58;5.95;;;1.65;;
57217;SDS011;43078;52.972;6.482;2023-04-03T03:22:24;6.18;;;1.50;;
57217;SDS011;43078;52.972;6.482;2023-04-03T03:24:50;3.80;;;1.30;;
57217;SDS011;43078;52.972;6.482;2023-04-03T03:27:16;6.20;;;1.13;;
57217;SDS011;43078;52.972;6.482;2023-04-03T03:29:42;6.22;;;1.65;;
57217;SDS011;43078;52.972;6.482;2023-04-03T03:32:07;4.60;;;1.33;;
57217;SDS011;43078;52.972;6.482;2023-04-03T03:34:33;5.55;;;1.60;;
57217;SDS011;43078;52.972;6.482;2023-04-03T03:36:59;5.80;;;1.63;;
57217;SDS011;43078;52.972;6.482;2023-04-03T03:39:24;5.55;;;1.33;;
57217;SDS011;43078;52.972;6.482;2023-04-03T03:41:50;7.50;;;1.50;;
57217;SDS011;43078;52.972;6.482;2023-04-03T03:44:18;5.68;;;1.33;;
57217;SDS011;43078;52.972;6.482;2023-04-03T03:46:44;4.78;;;1.40;;
57217;SDS011;43078;52.972;6.482;2023-04-03T03:49:10;6.28;;;1.70;;
57217;SDS011;43078;52.972;6.482;2023-04-03T03:51:36;6.30;;;1.85;;
57217;SDS011;43078;52.972;6.482;2023-04-03T03:54:03;7.63;;;1.60;;
57217;SDS011;43078;52.972;6.482;2023-04-03T03:56:29;5.07;;;1.77;;
57217;SDS011;43078;52.972;6.482;2023-04-03T03:58:54;5.68;;;1.40;;
57217;SDS011;43078;52.972;6.482;2023-04-03T04:01:21;4.47;;;1.48;;
57217;SDS011;43078;52.972;6.482;2023-04-03T04:03:50;4.65;;;1.30;;
57217;SDS011;43078;52.972;6.482;2023-04-03T04:06:16;4.78;;;1.38;;
57217;SDS011;43078;52.972;6.482;2023-04-03T04:08:42;5.05;;;1.33;;
57217;SDS011;43078;52.972;6.482;2023-04-03T04:11:07;4.78;;;1.65;;
57217;SDS011;43078;52.972;6.482;2023-04-03T04:13:34;5.18;;;1.30;;
57217;SDS011;43078;52.972;6.482;2023-04-03T04:15:59;6.05;;;1.90;;
57217;SDS011;43078;52.972;6.482;2023-04-03T04:18:25;5.22;;;1.65;;
57217;SDS011;43078;52.972;6.482;2023-04-03T04:20:51;5.00;;;1.80;;
57217;SDS011;43078;52.972;6.482;2023-04-03T04:23:17;6.13;;;1.55;;
57217;SDS011;43078;52.972;6.482;2023-04-03T04:25:46;3.92;;;1.42;;
57217;SDS011;43078;52.972;6.482;2023-04-03T04:28:13;3.75;;;1.50;;
57217;SDS011;43078;52.972;6.482;2023-04-03T04:30:39;5.18;;;1.63;;
57217;SDS011;43078;52.972;6.482;2023-04-03T04:33:05;7.50;;;1.60;;
57217;SDS011;43078;52.972;6.482;2023-04-03T04:35:32;6.60;;;1.88;;
57217;SDS011;43078;52.972;6.482;2023-04-03T04:37:58;5.32;;;1.65;;
57217;SDS011;43078;52.972;6.482;2023-04-03T04:40:23;4.88;;;1.55;;
57217;SDS011;43078;52.972;6.482;2023-04-03T04:42:49;7.15;;;1.80;;
57217;SDS011;43078;52.972;6.482;2023-04-03T04:45:15;5.03;;;1.65;;
57217;SDS011;43078;52.972;6.482;2023-04-03T04:47:41;5.32;;;1.98;;
57217;SDS011;43078;52.972;6.482;2023-04-03T04:50:06;5.72;;;1.80;;
57217;SDS011;43078;52.972;6.482;2023-04-03T04:52:32;5.88;;;1.88;;
57217;SDS011;43078;52.972;6.482;2023-04-03T04:54:58;5.93;;;1.80;;
57217;SDS011;43078;52.972;6.482;2023-04-03T04:57:24;5.15;;;1.70;;
57217;SDS011;43078;52.972;6.482;2023-04-03T04:59:50;4.68;;;2.00;;
57217;SDS011;43078;52.972;6.482;2023-04-03T05:02:15;5.93;;;1.90;;
57217;SDS011;43078;52.972;6.482;2023-04-03T05:04:41;7.00;;;1.95;;
57217;SDS011;43078;52.972;6.482;2023-04-03T05:07:07;4.55;;;1.70;;
57217;SDS011;43078;52.972;6.482;2023-04-03T05:09:32;5.05;;;1.90;;
57217;SDS011;43078;52.972;6.482;2023-04-03T05:11:58;5.40;;;1.60;;
57217;SDS011;43078;52.972;6.482;2023-04-03T05:14:24;7.43;;;2.10;;
57217;SDS011;43078;52.972;6.482;2023-04-03T05:16:50;6.38;;;1.92;;
57217;SDS011;43078;52.972;6.482;2023-04-03T05:19:19;4.95;;;2.00;;
57217;SDS011;43078;52.972;6.482;2023-04-03T05:21:45;5.45;;;1.85;;
57217;SDS011;43078;52.972;6.482;2023-04-03T05:24:11;6.85;;;2.10;;
57217;SDS011;43078;52.972;6.482;2023-04-03T05:26:36;5.22;;;1.83;;
57217;SDS011;43078;52.972;6.482;2023-04-03T05:29:03;7.53;;;2.28;;
57217;SDS011;43078;52.972;6.482;2023-04-03T05:31:29;5.80;;;2.20;;
57217;SDS011;43078;52.972;6.482;2023-04-03T05:33:55;7.30;;;2.15;;
57217;SDS011;43078;52.972;6.482;2023-04-03T05:36:21;7.50;;;2.10;;
57217;SDS011;43078;52.972;6.482;2023-04-03T05:38:47;7.70;;;2.20;;
57217;SDS011;43078;52.972;6.482;2023-04-03T05:41:13;8.77;;;2.50;;
57217;SDS011;43078;52.972;6.482;2023-04-03T05:43:40;6.78;;;2.55;;
57217;SDS011;43078;52.972;6.482;2023-04-03T05:46:12;7.93;;;2.40;;
57217;SDS011;43078;52.972;6.482;2023-04-03T05:48:39;7.05;;;2.20;;
57217;SDS011;43078;52.972;6.482;2023-04-03T05:51:06;8.82;;;2.50;;
57217;SDS011;43078;52.972;6.482;2023-04-03T05:53:33;6.47;;;2.17;;
57217;SDS011;43078;52.972;6.482;2023-04-03T05:56:02;7.38;;;2.42;;
57217;SDS011;43078;52.972;6.482;2023-04-03T05:58:28;8.25;;;2.60;;
57217;SDS011;43078;52.972;6.482;2023-04-03T06:00:53;5.88;;;2.15;;
57217;SDS011;43078;52.972;6.482;2023-04-03T06:03:20;7.20;;;2.25;;
57217;SDS011;43078;52.972;6.482;2023-04-03T06:05:45;6.32;;;2.22;;
57217;SDS011;43078;52.972;6.482;2023-04-03T06:08:11;5.30;;;2.10;;
57217;SDS011;43078;52.972;6.482;2023-04-03T06:10:37;7.55;;;2.30;;
57217;SDS011;43078;52.972;6.482;2023-04-03T06:13:03;9.05;;;2.40;;
57217;SDS011;43078;52.972;6.482;2023-04-03T06:15:29;5.40;;;2.17;;
57217;SDS011;43078;52.972;6.482;2023-04-03T06:17:54;8.20;;;2.38;;
57217;SDS011;43078;52.972;6.482;2023-04-03T06:20:21;6.30;;;2.20;;
57217;SDS011;43078;52.972;6.482;2023-04-03T06:22:47;7.65;;;2.70;;
57217;SDS011;43078;52.972;6.482;2023-04-03T06:25:13;5.55;;;2.50;;
57217;SDS011;43078;52.972;6.482;2023-04-03T06:27:39;5.65;;;2.30;;
57217;SDS011;43078;52.972;6.482;2023-04-03T06:30:06;5.90;;;2.78;;
57217;SDS011;43078;52.972;6.482;2023-04-03T06:32:32;6.97;;;2.63;;
57217;SDS011;43078;52.972;6.482;2023-04-03T06:34:57;8.77;;;2.80;;
57217;SDS011;43078;52.972;6.482;2023-04-03T06:37:23;7.03;;;2.72;;
57217;SDS011;43078;52.972;6.482;2023-04-03T06:39:53;6.90;;;2.47;;
57217;SDS011;43078;52.972;6.482;2023-04-03T06:42:19;8.10;;;2.75;;
57217;SDS011;43078;52.972;6.482;2023-04-03T06:44:46;7.25;;;2.60;;
57217;SDS011;43078;52.972;6.482;2023-04-03T06:47:13;7.93;;;2.50;;
57217;SDS011;43078;52.972;6.482;2023-04-03T06:49:39;10.20;;;3.10;;
57217;SDS011;43078;52.972;6.482;2023-04-03T06:52:06;9.40;;;2.92;;
57217;SDS011;43078;52.972;6.482;2023-04-03T06:54:32;9.15;;;2.65;;
57217;SDS011;43078;52.972;6.482;2023-04-03T06:56:58;8.05;;;3.15;;
57217;SDS011;43078;52.972;6.482;2023-04-03T06:59:24;8.10;;;2.75;;
57217;SDS011;43078;52.972;6.482;2023-04-03T07:01:50;7.88;;;2.70;;
57217;SDS011;43078;52.972;6.482;2023-04-03T07:04:16;9.25;;;2.97;;
57217;SDS011;43078;52.972;6.482;2023-04-03T07:06:41;7.93;;;2.80;;
57217;SDS011;43078;52.972;6.482;2023-04-03T07:09:08;7.28;;;2.65;;
57217;SDS011;43078;52.972;6.482;2023-04-03T07:11:34;8.05;;;2.83;;
57217;SDS011;43078;52.972;6.482;2023-04-03T07:14:01;9.10;;;2.97;;
57217;SDS011;43078;52.972;6.482;2023-04-03T07:16:27;8.88;;;2.47;;
57217;SDS011;43078;52.972;6.482;2023-04-03T07:18:53;8.25;;;2.92;;
57217;SDS011;43078;52.972;6.482;2023-04-03T07:21:18;8.10;;;2.85;;
57217;SDS011;43078;52.972;6.482;2023-04-03T07:23:44;8.52;;;2.50;;
57217;SDS011;43078;52.972;6.482;2023-04-03T07:26:10;6.20;;;2.47;;
57217;SDS011;43078;52.972;6.482;2023-04-03T07:28:35;10.55;;;2.90;;
57217;SDS011;43078;52.972;6.482;2023-04-03T07:31:04;8.20;;;2.35;;
57217;SDS011;43078;52.972;6.482;2023-04-03T07:33:33;7.65;;;2.35;;
57217;SDS011;43078;52.972;6.482;2023-04-03T07:36:00;8.18;;;2.00;;
57217;SDS011;43078;52.972;6.482;2023-04-03T07:38:26;7.38;;;2.20;;
57217;SDS011;43078;52.972;6.482;2023-04-03T07:40:53;7.07;;;2.30;;
57217;SDS011;43078;52.972;6.482;2023-04-03T07:43:19;8.30;;;2.30;;
57217;SDS011;43078;52.972;6.482;2023-04-03T07:45:46;10.98;;;2.67;;
57217;SDS011;43078;52.972;6.482;2023-04-03T07:48:14;8.23;;;2.50;;
57217;SDS011;43078;52.972;6.482;2023-04-03T07:50:41;9.20;;;2.10;;
57217;SDS011;43078;52.972;6.482;2023-04-03T07:53:07;5.65;;;2.08;;
57217;SDS011;43078;52.972;6.482;2023-04-03T07:55:33;7.35;;;2.03;;
57217;SDS011;43078;52.972;6.482;2023-04-03T07:57:59;5.65;;;1.58;;
57217;SDS011;43078;52.972;6.482;2023-04-03T08:00:25;8.40;;;2.30;;
57217;SDS011;43078;52.972;6.482;2023-04-03T08:02:50;5.45;;;1.80;;
57217;SDS011;43078;52.972;6.482;2023-04-03T08:05:17;6.35;;;2.03;;
57217;SDS011;43078;52.972;6.482;2023-04-03T08:07:44;4.88;;;1.58;;
57217;SDS011;43078;52.972;6.482;2023-04-03T08:10:10;8.50;;;2.08;;
57217;SDS011;43078;52.972;6.482;2023-04-03T08:12:35;6.22;;;2.08;;
57217;SDS011;43078;52.972;6.482;2023-04-03T08:15:02;7.70;;;1.90;;
57217;SDS011;43078;52.972;6.482;2023-04-03T08:17:28;5.72;;;1.65;;
57217;SDS011;43078;52.972;6.482;2023-04-03T08:19:54;6.45;;;2.00;;
57217;SDS011;43078;52.972;6.482;2023-04-03T08:22:20;5.20;;;1.65;;
57217;SDS011;43078;52.972;6.482;2023-04-03T08:24:45;5.55;;;1.73;;
57217;SDS011;43078;52.972;6.482;2023-04-03T08:27:11;5.30;;;1.77;;
57217;SDS011;43078;52.972;6.482;2023-04-03T08:29:37;5.88;;;1.58;;
57217;SDS011;43078;52.972;6.482;2023-04-03T08:32:03;7.95;;;2.20;;
57217;SDS011;43078;52.972;6.482;2023-04-03T08:34:29;5.07;;;1.73;;
57217;SDS011;43078;52.972;6.482;2023-04-03T08:36:55;6.68;;;1.95;;
57217;SDS011;43078;52.972;6.482;2023-04-03T08:39:21;7.18;;;1.65;;
57217;SDS011;43078;52.972;6.482;2023-04-03T08:41:46;6.00;;;1.50;;
57217;SDS011;43078;52.972;6.482;2023-04-03T08:44:14;6.68;;;1.60;;
57217;SDS011;43078;52.972;6.482;2023-04-03T08:46:48;8.00;;;1.73;;
57217;SDS011;43078;52.972;6.482;2023-04-03T08:49:28;7.82;;;1.73;;
57217;SDS011;43078;52.972;6.482;2023-04-03T08:51:57;5.15;;;1.45;;
57217;SDS011;43078;52.972;6.482;2023-04-03T08:54:37;5.55;;;1.50;;
57217;SDS011;43078;52.972;6.482;2023-04-03T08:57:15;5.07;;;1.70;;
57217;SDS011;43078;52.972;6.482;2023-04-03T08:59:42;5.80;;;1.48;;
57217;SDS011;43078;52.972;6.482;2023-04-03T09:02:22;3.63;;;1.13;;
57217;SDS011;43078;52.972;6.482;2023-04-03T09:04:52;7.95;;;1.80;;
57217;SDS011;43078;52.972;6.482;2023-04-03T09:07:22;4.07;;;1.40;;
57217;SDS011;43078;52.972;6.482;2023-04-03T09:09:59;6.55;;;1.60;;
57217;SDS011;43078;52.972;6.482;2023-04-03T09:12:29;6.90;;;1.20;;
57217;SDS011;43078;52.972;6.482;2023-04-03T09:23:15;5.28;;;1.50;;
57217;SDS011;43078;52.972;6.482;2023-04-03T09:25:47;5.55;;;1.40;;
57217;SDS011;43078;52.972;6.482;2023-04-03T09:28:19;5.07;;;1.02;;
57217;SDS011;43078;52.972;6.482;2023-04-03T09:30:44;7.05;;;1.63;;
57217;SDS011;43078;52.972;6.482;2023-04-03T09:33:11;5.35;;;1.38;;
57217;SDS011;43078;52.972;6.482;2023-04-03T09:35:38;4.60;;;1.30;;
57217;SDS011;43078;52.972;6.482;2023-04-03T09:40:38;5.20;;;1.48;;
57217;SDS011;43078;52.972;6.482;2023-04-03T09:43:31;5.93;;;1.50;;
57217;SDS011;43078;52.972;6.482;2023-04-03T09:46:28;6.22;;;1.60;;
57217;SDS011;43078;52.972;6.482;2023-04-03T09:49:03;4.55;;;1.30;;
57217;SDS011;43078;52.972;6.482;2023-04-03T09:51:31;3.75;;;1.10;;
57217;SDS011;43078;52.972;6.482;2023-04-03T09:53:57;6.50;;;1.40;;
57217;SDS011;43078;52.972;6.482;2023-04-03T09:56:26;5.68;;;1.48;;
57217;SDS011;43078;52.972;6.482;2023-04-03T10:04:07;4.35;;;1.38;;
57217;SDS011;43078;52.972;6.482;2023-04-03T10:06:46;9.05;;;1.40;;
57217;SDS011;43078;52.972;6.482;2023-04-03T10:09:22;3.60;;;1.23;;
57217;SDS011;43078;52.972;6.482;2023-04-03T10:12:02;4.53;;;1.30;;
57217;SDS011;43078;52.972;6.482;2023-04-03T10:17:20;5.57;;;1.27;;
57217;SDS011;43078;52.972;6.482;2023-04-03T10:20:09;4.72;;;1.08;;
57217;SDS011;43078;52.972;6.482;2023-04-03T10:28:38;5.13;;;1.20;;
57217;SDS011;43078;52.972;6.482;2023-04-03T10:31:25;3.78;;;1.00;;
57217;SDS011;43078;52.972;6.482;2023-04-03T10:44:36;3.17;;;0.82;;
57217;SDS011;43078;52.972;6.482;2023-04-03T10:47:18;5.70;;;0.93;;
57217;SDS011;43078;52.972;6.482;2023-04-03T10:50:00;4.32;;;1.23;;
57217;SDS011;43078;52.972;6.482;2023-04-03T10:58:41;4.85;;;0.98;;
57217;SDS011;43078;52.972;6.482;2023-04-03T11:01:15;5.43;;;1.08;;
57217;SDS011;43078;52.972;6.482;2023-04-03T11:03:49;3.33;;;0.88;;
57217;SDS011;43078;52.972;6.482;2023-04-03T11:06:22;3.03;;;0.80;;
57217;SDS011;43078;52.972;6.482;2023-04-03T11:08:59;3.53;;;0.90;;
57217;SDS011;43078;52.972;6.482;2023-04-03T11:11:30;2.05;;;0.70;;
57217;SDS011;43078;52.972;6.482;2023-04-03T11:14:03;4.63;;;1.10;;
57217;SDS011;43078;52.972;6.482;2023-04-03T11:16:41;3.35;;;1.10;;
57217;SDS011;43078;52.972;6.482;2023-04-03T11:19:18;3.83;;;1.13;;
57217;SDS011;43078;52.972;6.482;2023-04-03T11:22:01;4.28;;;0.85;;
57217;SDS011;43078;52.972;6.482;2023-04-03T11:24:33;2.72;;;0.88;;
57217;SDS011;43078;52.972;6.482;2023-04-03T11:27:03;4.32;;;1.10;;
57217;SDS011;43078;52.972;6.482;2023-04-03T11:29:39;2.55;;;0.90;;
57217;SDS011;43078;52.972;6.482;2023-04-03T11:34:56;3.10;;;0.95;;
57217;SDS011;43078;52.972;6.482;2023-04-03T11:39:56;6.40;;;1.10;;
57217;SDS011;43078;52.972;6.482;2023-04-03T11:42:46;4.30;;;0.90;;
57217;SDS011;43078;52.972;6.482;2023-04-03T12:32:16;2.55;;;1.00;;
57217;SDS011;43078;52.972;6.482;2023-04-03T12:35:02;5.15;;;1.20;;
57217;SDS011;43078;52.972;6.482;2023-04-03T12:40:37;4.47;;;1.38;;
57217;SDS011;43078;52.972;6.482;2023-04-03T12:43:34;4.95;;;1.20;;
57217;SDS011;43078;52.972;6.482;2023-04-03T12:46:22;4.03;;;1.33;;
57217;SDS011;43078;52.972;6.482;2023-04-03T12:51:40;4.00;;;1.00;;
57217;SDS011;43078;52.972;6.482;2023-04-03T12:54:15;3.85;;;1.10;;
57217;SDS011;43078;52.972;6.482;2023-04-03T12:56:48;2.92;;;1.08;;
57217;SDS011;43078;52.972;6.482;2023-04-03T12:59:20;3.80;;;1.20;;
57217;SDS011;43078;52.972;6.482;2023-04-03T13:01:55;4.45;;;1.10;;
57217;SDS011;43078;52.972;6.482;2023-04-03T13:04:23;3.60;;;1.13;;
57217;SDS011;43078;52.972;6.482;2023-04-03T13:06:49;4.00;;;1.33;;
57217;SDS011;43078;52.972;6.482;2023-04-03T13:09:28;4.25;;;1.40;;
57217;SDS011;43078;52.972;6.482;2023-04-03T13:14:50;4.55;;;1.30;;
57217;SDS011;43078;52.972;6.482;2023-04-03T13:17:20;6.38;;;1.45;;
57217;SDS011;43078;52.972;6.482;2023-04-03T13:19:46;3.10;;;1.17;;
57217;SDS011;43078;52.972;6.482;2023-04-03T13:24:49;4.72;;;1.50;;
57217;SDS011;43078;52.972;6.482;2023-04-03T13:27:17;4.88;;;1.20;;
57217;SDS011;43078;52.972;6.482;2023-04-03T13:29:43;6.50;;;1.17;;
57217;SDS011;43078;52.972;6.482;2023-04-03T13:32:21;2.50;;;1.02;;
57217;SDS011;43078;52.972;6.482;2023-04-03T13:34:50;4.32;;;1.50;;
57217;SDS011;43078;52.972;6.482;2023-04-03T13:37:23;6.53;;;1.40;;
57217;SDS011;43078;52.972;6.482;2023-04-03T13:42:34;4.25;;;1.27;;
57217;SDS011;43078;52.972;6.482;2023-04-03T13:45:09;4.03;;;1.30;;
57217;SDS011;43078;52.972;6.482;2023-04-03T13:47:39;3.67;;;1.30;;
57217;SDS011;43078;52.972;6.482;2023-04-03T13:50:23;5.35;;;1.33;;
57217;SDS011;43078;52.972;6.482;2023-04-03T13:55:28;4.22;;;1.40;;
57217;SDS011;43078;52.972;6.482;2023-04-03T13:57:57;4.50;;;1.30;;
57217;SDS011;43078;52.972;6.482;2023-04-03T14:00:38;5.35;;;1.20;;
57217;SDS011;43078;52.972;6.482;2023-04-03T14:05:48;4.35;;;1.52;;
57217;SDS011;43078;52.972;6.482;2023-04-03T14:08:14;4.65;;;1.40;;
57217;SDS011;43078;52.972;6.482;2023-04-03T14:10:41;3.88;;;1.40;;
57217;SDS011;43078;52.972;6.482;2023-04-03T14:13:09;4.50;;;1.40;;
57217;SDS011;43078;52.972;6.482;2023-04-03T14:15:40;4.95;;;1.48;;
57217;SDS011;43078;52.972;6.482;2023-04-03T14:18:09;4.57;;;1.50;;
57217;SDS011;43078;52.972;6.482;2023-04-03T14:20:36;4.72;;;1.50;;
57217;SDS011;43078;52.972;6.482;2023-04-03T14:23:02;4.45;;;1.30;;
57217;SDS011;43078;52.972;6.482;2023-04-03T14:25:28;4.13;;;1.48;;
57217;SDS011;43078;52.972;6.482;2023-04-03T14:27:54;5.20;;;1.30;;
57217;SDS011;43078;52.972;6.482;2023-04-03T14:30:22;5.25;;;1.42;;
57217;SDS011;43078;52.972;6.482;2023-04-03T14:32:56;4.05;;;1.35;;
57217;SDS011;43078;52.972;6.482;2023-04-03T14:35:22;4.72;;;1.40;;
57217;SDS011;43078;52.972;6.482;2023-04-03T14:37:49;4.10;;;1.50;;
57217;SDS011;43078;52.972;6.482;2023-04-03T14:40:18;4.15;;;1.30;;
57217;SDS011;43078;52.972;6.482;2023-04-03T14:42:46;4.32;;;1.27;;
57217;SDS011;43078;52.972;6.482;2023-04-03T14:45:13;5.55;;;1.83;;
57217;SDS011;43078;52.972;6.482;2023-04-03T14:47:47;3.67;;;1.40;;
57217;SDS011;43078;52.972;6.482;2023-04-03T14:50:16;2.60;;;1.13;;
57217;SDS011;43078;52.972;6.482;2023-04-03T14:52:46;3.75;;;1.30;;
57217;SDS011;43078;52.972;6.482;2023-04-03T14:55:18;2.88;;;1.13;;
57217;SDS011;43078;52.972;6.482;2023-04-03T14:57:45;4.20;;;1.35;;
57217;SDS011;43078;52.972;6.482;2023-04-03T15:00:15;4.28;;;1.35;;
57217;SDS011;43078;52.972;6.482;2023-04-03T15:02:45;3.28;;;1.25;;
57217;SDS011;43078;52.972;6.482;2023-04-03T15:05:12;6.47;;;1.50;;
57217;SDS011;43078;52.972;6.482;2023-04-03T15:07:40;4.68;;;1.42;;
57217;SDS011;43078;52.972;6.482;2023-04-03T15:12:47;3.72;;;1.30;;
57217;SDS011;43078;52.972;6.482;2023-04-03T15:15:23;3.75;;;1.30;;
57217;SDS011;43078;52.972;6.482;2023-04-03T15:17:55;3.53;;;1.25;;
57217;SDS011;43078;52.972;6.482;2023-04-03T15:20:45;3.53;;;1.42;;
57217;SDS011;43078;52.972;6.482;2023-04-03T15:23:12;3.55;;;1.30;;
57217;SDS011;43078;52.972;6.482;2023-04-03T15:25:40;4.35;;;1.35;;
57217;SDS011;43078;52.972;6.482;2023-04-03T15:28:32;4.90;;;1.33;;
57217;SDS011;43078;52.972;6.482;2023-04-03T15:30:55;3.72;;;1.30;;
57217;SDS011;43078;52.972;6.482;2023-04-03T15:33:21;3.88;;;1.40;;
57217;SDS011;43078;52.972;6.482;2023-04-03T15:35:47;3.78;;;1.10;;
57217;SDS011;43078;52.972;6.482;2023-04-03T15:38:13;4.32;;;1.42;;
57217;SDS011;43078;52.972;6.482;2023-04-03T15:40:39;4.10;;;1.30;;
57217;SDS011;43078;52.972;6.482;2023-04-03T15:43:05;4.55;;;1.30;;
57217;SDS011;43078;52.972;6.482;2023-04-03T15:45:32;4.00;;;1.30;;
57217;SDS011;43078;52.972;6.482;2023-04-03T15:47:59;4.65;;;1.45;;
57217;SDS011;43078;52.972;6.482;2023-04-03T15:50:26;2.85;;;1.20;;
57217;SDS011;43078;52.972;6.482;2023-04-03T15:52:51;3.42;;;1.20;;
57217;SDS011;43078;52.972;6.482;2023-04-03T15:55:23;3.67;;;1.40;;
57217;SDS011;43078;52.972;6.482;2023-04-03T15:57:50;2.95;;;1.20;;
57217;SDS011;43078;52.972;6.482;2023-04-03T16:00:17;4.63;;;1.27;;
57217;SDS011;43078;52.972;6.482;2023-04-03T16:02:46;3.47;;;1.42;;
57217;SDS011;43078;52.972;6.482;2023-04-03T16:05:13;3.70;;;1.30;;
57217;SDS011;43078;52.972;6.482;2023-04-03T16:07:42;2.90;;;1.30;;
57217;SDS011;43078;52.972;6.482;2023-04-03T16:10:08;4.05;;;1.40;;
57217;SDS011;43078;52.972;6.482;2023-04-03T16:12:35;5.07;;;1.50;;
57217;SDS011;43078;52.972;6.482;2023-04-03T16:15:01;5.22;;;1.63;;
57217;SDS011;43078;52.972;6.482;2023-04-03T16:17:27;3.83;;;1.48;;
57217;SDS011;43078;52.972;6.482;2023-04-03T16:19:53;4.45;;;1.40;;
57217;SDS011;43078;52.972;6.482;2023-04-03T16:22:20;5.45;;;1.33;;
57217;SDS011;43078;52.972;6.482;2023-04-03T16:24:48;2.38;;;0.98;;
57217;SDS011;43078;52.972;6.482;2023-04-03T16:27:16;5.35;;;1.55;;
57217;SDS011;43078;52.972;6.482;2023-04-03T16:29:41;4.50;;;1.40;;
57217;SDS011;43078;52.972;6.482;2023-04-03T16:32:07;5.03;;;1.77;;
57217;SDS011;43078;52.972;6.482;2023-04-03T16:34:33;5.05;;;1.80;;
57217;SDS011;43078;52.972;6.482;2023-04-03T16:36:59;4.45;;;1.52;;
57217;SDS011;43078;52.972;6.482;2023-04-03T16:39:25;3.85;;;1.52;;
57217;SDS011;43078;52.972;6.482;2023-04-03T16:41:51;4.40;;;1.67;;
57217;SDS011;43078;52.972;6.482;2023-04-03T16:44:17;4.25;;;1.60;;
57217;SDS011;43078;52.972;6.482;2023-04-03T16:46:43;4.70;;;1.58;;
57217;SDS011;43078;52.972;6.482;2023-04-03T16:49:08;4.72;;;1.80;;
57217;SDS011;43078;52.972;6.482;2023-04-03T16:51:34;4.90;;;1.92;;
57217;SDS011;43078;52.972;6.482;2023-04-03T16:54:00;5.43;;;1.92;;
57217;SDS011;43078;52.972;6.482;2023-04-03T16:56:25;4.22;;;1.60;;
57217;SDS011;43078;52.972;6.482;2023-04-03T16:58:54;5.85;;;2.10;;
57217;SDS011;43078;52.972;6.482;2023-04-03T17:01:20;4.78;;;2.00;;
57217;SDS011;43078;52.972;6.482;2023-04-03T17:03:47;3.90;;;1.60;;